Time;durP1;ratioP1;P1;durP2;ratioP2;P2;SDS_P1;SDS_P2;PMS_P1;PMS_P2;Temp;Humidity;BMP_temperature;BMP_pressure;BME280_temperature;BME280_humidity;BME280_pressure;Samples;Min_cycle;Max_cycle;Signal;HPM_P1;HPM_P2
2021/04/16 00:00:03;;;;;;;4.38;0.65;;;4.30;99.90;;;;;;5056072;28;20029;-72
2021/04/16 00:02:28;;;;;;;0.88;0.30;;;4.30;99.90;;;;;;5054629;28;20490;-72
2021/04/16 00:04:54;;;;;;;1.05;0.43;;;4.30;99.90;;;;;;5054555;28;20049;-72
2021/04/16 00:07:19;;;;;;;3.45;0.40;;;4.20;99.90;;;;;;5054199;28;20032;-72
2021/04/16 00:09:45;;;;;;;3.35;0.52;;;4.20;99.90;;;;;;5052464;28;20107;-72
2021/04/16 00:12:11;;;;;;;1.20;0.50;;;4.20;99.90;;;;;;5054754;28;20040;-72
2021/04/16 00:14:37;;;;;;;2.00;0.40;;;4.20;99.90;;;;;;5052529;28;20025;-72
2021/04/16 00:17:04;;;;;;;0.85;0.50;;;4.10;99.90;;;;;;5055290;28;20032;-72
2021/04/16 00:19:30;;;;;;;1.27;0.70;;;4.10;99.90;;;;;;5053572;28;20033;-71
2021/04/16 00:21:56;;;;;;;1.92;0.60;;;4.10;99.90;;;;;;5054912;28;20029;-72
2021/04/16 00:24:21;;;;;;;0.85;0.30;;;4.00;99.90;;;;;;5052788;28;20043;-72
2021/04/16 00:26:48;;;;;;;2.80;0.88;;;4.00;99.90;;;;;;5056881;28;20410;-72
2021/04/16 00:29:13;;;;;;;4.75;0.75;;;4.00;99.90;;;;;;5048894;28;20040;-72
2021/04/16 00:31:50;;;;;;;1.25;0.60;;;3.90;99.90;;;;;;5056199;28;20028;-71
2021/04/16 00:34:17;;;;;;;3.22;0.70;;;3.90;99.90;;;;;;5050865;28;20037;-72
2021/04/16 00:36:43;;;;;;;1.30;0.68;;;3.90;99.90;;;;;;5048878;28;20028;-72
2021/04/16 00:39:08;;;;;;;2.60;0.70;;;3.90;99.90;;;;;;5056966;28;20141;-72
2021/04/16 00:41:34;;;;;;;3.53;0.98;;;3.80;99.90;;;;;;5051924;28;20548;-72
2021/04/16 00:44:00;;;;;;;1.67;0.70;;;3.90;99.90;;;;;;5054641;28;20029;-72
2021/04/16 00:46:51;;;;;;;1.45;0.63;;;3.80;99.90;;;;;;5054177;28;20466;-72
2021/04/16 00:49:22;;;;;;;1.52;0.60;;;3.80;99.90;;;;;;5050178;28;20445;-72
2021/04/16 00:51:54;;;;;;;0.93;0.40;;;3.70;99.90;;;;;;5050067;28;20029;-72
2021/04/16 00:54:24;;;;;;;2.45;0.63;;;3.70;99.90;;;;;;5056327;28;20097;-72
2021/04/16 00:56:52;;;;;;;1.53;0.87;;;3.70;99.90;;;;;;5053219;28;20116;-72
2021/04/16 00:59:22;;;;;;;3.95;1.00;;;3.70;99.90;;;;;;5055248;28;20287;-72
2021/04/16 01:01:48;;;;;;;1.52;0.38;;;3.70;99.90;;;;;;5053840;28;20029;-72
2021/04/16 01:04:13;;;;;;;1.00;0.55;;;3.60;99.90;;;;;;5052657;28;20090;-72
2021/04/16 01:06:39;;;;;;;1.20;0.52;;;3.70;99.90;;;;;;5056264;28;20048;-72
2021/04/16 01:09:05;;;;;;;3.05;0.55;;;3.70;99.90;;;;;;5054389;28;20024;-71
2021/04/16 01:11:31;;;;;;;1.23;0.70;;;3.70;99.90;;;;;;5055642;28;20056;-72
2021/04/16 01:13:57;;;;;;;1.95;0.63;;;3.70;99.90;;;;;;5054905;28;20112;-72
2021/04/16 01:16:31;;;;;;;1.60;0.70;;;3.70;99.90;;;;;;5054259;28;20035;-72
2021/04/16 01:19:00;;;;;;;1.85;0.70;;;3.70;99.90;;;;;;5053647;28;20063;-72
2021/04/16 01:21:36;;;;;;;4.57;1.05;;;3.60;99.90;;;;;;5054555;28;20048;-73
2021/04/16 01:24:31;;;;;;;3.50;0.90;;;3.60;99.90;;;;;;5054939;28;20029;-72
2021/04/16 01:26:57;;;;;;;2.90;0.68;;;3.50;99.90;;;;;;5050721;28;20075;-72
2021/04/16 01:29:24;;;;;;;2.95;0.60;;;3.50;99.90;;;;;;5055631;28;20079;-72
2021/04/16 01:31:51;;;;;;;2.00;0.80;;;3.50;99.90;;;;;;5057931;28;20036;-72
2021/04/16 01:34:24;;;;;;;3.42;0.90;;;3.50;99.90;;;;;;5052290;28;20034;-72
2021/04/16 01:36:52;;;;;;;1.85;0.50;;;3.40;99.90;;;;;;5052403;28;20033;-72
2021/04/16 01:39:21;;;;;;;1.92;0.73;;;3.40;99.90;;;;;;5055161;28;20033;-72
2021/04/16 01:41:47;;;;;;;1.23;0.55;;;3.40;99.90;;;;;;5051716;28;20049;-72
2021/04/16 01:44:16;;;;;;;2.13;0.85;;;3.30;99.90;;;;;;5051386;28;20049;-72
2021/04/16 01:47:05;;;;;;;4.05;0.80;;;3.30;99.90;;;;;;5048306;28;20140;-72
2021/04/16 01:49:36;;;;;;;1.35;0.57;;;3.30;99.90;;;;;;5055373;28;20463;-72
2021/04/16 01:52:05;;;;;;;3.20;1.13;;;3.30;99.90;;;;;;5053568;28;20016;-73
2021/04/16 01:54:35;;;;;;;1.50;0.90;;;3.30;99.90;;;;;;5052931;28;20047;-72
2021/04/16 01:57:09;;;;;;;2.28;1.00;;;3.40;99.90;;;;;;5055958;28;20506;-72
2021/04/16 01:59:36;;;;;;;4.05;0.90;;;3.30;99.90;;;;;;5051824;28;20047;-72
2021/04/16 02:02:05;;;;;;;3.25;1.00;;;3.30;99.90;;;;;;5053686;28;20037;-72
2021/04/16 02:04:31;;;;;;;3.35;1.30;;;3.30;99.90;;;;;;5055847;28;20041;-71
2021/04/16 02:06:56;;;;;;;2.78;1.10;;;3.30;99.90;;;;;;5056243;28;20037;-73
2021/04/16 02:09:26;;;;;;;3.60;0.98;;;3.20;99.90;;;;;;5055434;28;20110;-73
2021/04/16 02:11:52;;;;;;;3.03;1.03;;;3.20;99.90;;;;;;5057333;28;20397;-72
2021/04/16 02:14:24;;;;;;;5.93;1.30;;;3.20;99.90;;;;;;5055117;28;20040;-72
2021/04/16 02:16:52;;;;;;;1.60;0.80;;;3.20;99.90;;;;;;5057416;28;20048;-72
2021/04/16 02:19:18;;;;;;;1.65;0.90;;;3.20;99.90;;;;;;5054173;28;20025;-73
2021/04/16 02:21:43;;;;;;;2.50;0.70;;;3.20;99.90;;;;;;5056014;28;20063;-72
2021/04/16 02:24:11;;;;;;;1.35;0.80;;;3.10;99.90;;;;;;5055818;28;20124;-72
2021/04/16 02:26:37;;;;;;;3.30;1.45;;;3.10;99.90;;;;;;5048495;28;20661;-72
2021/04/16 02:29:12;;;;;;;5.32;1.40;;;3.10;99.90;;;;;;5056307;28;20106;-72
2021/04/16 02:31:42;;;;;;;4.40;1.20;;;3.10;99.90;;;;;;5051570;28;20503;-72
2021/04/16 02:34:12;;;;;;;2.38;0.77;;;3.10;99.90;;;;;;5055314;28;20045;-73
2021/04/16 02:36:38;;;;;;;1.13;0.70;;;3.00;99.90;;;;;;5051511;28;20095;-72
2021/04/16 02:39:06;;;;;;;2.08;0.98;;;3.10;99.90;;;;;;5059330;28;20044;-72
2021/04/16 02:41:32;;;;;;;3.65;1.23;;;3.10;99.90;;;;;;5055572;28;20040;-74
2021/04/16 02:43:58;;;;;;;4.63;1.80;;;3.10;99.90;;;;;;5058324;28;20037;-72
2021/04/16 02:46:23;;;;;;;2.00;0.98;;;3.10;99.90;;;;;;5058260;28;20679;-73
2021/04/16 02:48:49;;;;;;;3.97;1.10;;;3.10;99.90;;;;;;5054808;28;20048;-72
2021/04/16 02:51:14;;;;;;;2.78;1.00;;;3.10;99.90;;;;;;5058000;28;20051;-72
2021/04/16 02:53:40;;;;;;;3.72;0.95;;;3.10;99.90;;;;;;5053850;28;20037;-72
2021/04/16 02:56:05;;;;;;;2.60;1.30;;;3.10;99.90;;;;;;5057068;28;20032;-72
2021/04/16 02:58:31;;;;;;;2.00;0.80;;;3.10;99.90;;;;;;5052295;28;20645;-72
2021/04/16 03:00:57;;;;;;;3.28;1.05;;;3.10;99.90;;;;;;5056525;28;20029;-73
2021/04/16 03:03:23;;;;;;;3.47;1.00;;;3.10;99.90;;;;;;5056260;28;20032;-72
2021/04/16 03:05:49;;;;;;;4.03;1.00;;;3.10;99.90;;;;;;5054001;28;20123;-72
2021/04/16 03:08:14;;;;;;;2.92;1.30;;;3.10;99.90;;;;;;5052644;28;20044;-73
2021/04/16 03:10:40;;;;;;;2.25;1.05;;;3.10;99.90;;;;;;5052718;28;20041;-72
2021/04/16 03:13:06;;;;;;;2.45;1.10;;;3.10;99.90;;;;;;5058952;28;20043;-72
2021/04/16 03:15:34;;;;;;;4.28;1.20;;;3.00;99.90;;;;;;5059961;28;20048;-72
2021/04/16 03:18:00;;;;;;;6.35;1.00;;;3.10;99.90;;;;;;5054675;28;20384;-72
2021/04/16 03:20:26;;;;;;;3.47;0.98;;;3.10;99.90;;;;;;5057235;28;20120;-72
2021/04/16 03:22:51;;;;;;;3.75;1.38;;;3.10;99.90;;;;;;5054072;28;20036;-72
2021/04/16 03:25:18;;;;;;;21.27;3.97;;;3.10;99.90;;;;;;5055137;28;20124;-72
2021/04/16 03:27:43;;;;;;;2.35;1.20;;;3.10;99.90;;;;;;5057037;28;20135;-72
2021/04/16 03:30:14;;;;;;;5.38;1.13;;;3.10;99.90;;;;;;5055463;28;20155;-72
2021/04/16 03:32:40;;;;;;;4.20;1.25;;;3.10;99.90;;;;;;5054399;28;20578;-72
2021/04/16 03:35:06;;;;;;;3.78;1.77;;;3.10;99.90;;;;;;5058342;28;20116;-72
2021/04/16 03:37:32;;;;;;;4.57;1.10;;;3.10;99.90;;;;;;5051001;28;20043;-72
2021/04/16 03:39:58;;;;;;;3.20;1.77;;;3.10;99.90;;;;;;5054198;28;20029;-72
2021/04/16 03:42:23;;;;;;;5.32;2.13;;;3.00;99.90;;;;;;5055645;28;20039;-72
2021/04/16 03:44:49;;;;;;;2.13;0.90;;;3.00;99.90;;;;;;5055988;28;20029;-72
2021/04/16 03:47:16;;;;;;;7.05;1.33;;;3.00;99.90;;;;;;5056527;28;20077;-72
2021/04/16 03:49:43;;;;;;;1.90;0.77;;;3.00;99.90;;;;;;5053954;28;20056;-72
2021/04/16 03:52:09;;;;;;;3.45;1.40;;;2.90;99.90;;;;;;5057086;28;20068;-72
2021/04/16 03:54:34;;;;;;;6.07;1.40;;;3.00;99.90;;;;;;5055577;28;20052;-72
2021/04/16 03:57:00;;;;;;;7.93;1.85;;;2.90;99.90;;;;;;5050253;28;20530;-71
2021/04/16 03:59:26;;;;;;;3.92;1.15;;;2.90;99.90;;;;;;5057639;28;20048;-72
2021/04/16 04:01:53;;;;;;;7.55;1.83;;;2.90;99.90;;;;;;5052468;28;20551;-72
2021/04/16 04:04:19;;;;;;;5.72;0.90;;;2.90;99.90;;;;;;5053316;28;20036;-72
2021/04/16 04:06:49;;;;;;;6.45;1.65;;;2.90;99.90;;;;;;5055585;28;20041;-72
2021/04/16 04:09:16;;;;;;;2.88;1.10;;;2.90;99.90;;;;;;5055473;28;20036;-72
2021/04/16 04:11:42;;;;;;;5.75;1.10;;;2.90;99.90;;;;;;5055636;28;20028;-71
2021/04/16 04:14:08;;;;;;;3.58;1.23;;;2.90;99.90;;;;;;5053562;28;20193;-72
2021/04/16 04:16:54;;;;;;;11.80;1.60;;;2.90;99.90;;;;;;5058243;28;20532;-72
2021/04/16 04:19:21;;;;;;;8.43;1.58;;;2.90;99.90;;;;;;5052905;28;20033;-72
2021/04/16 04:21:51;;;;;;;4.50;1.75;;;2.90;99.90;;;;;;5053453;28;20397;-73
2021/04/16 04:24:17;;;;;;;2.67;0.87;;;2.90;99.90;;;;;;5054278;28;20047;-72
2021/04/16 04:26:44;;;;;;;3.85;1.23;;;2.80;99.90;;;;;;5055815;28;20803;-72
2021/04/16 04:29:10;;;;;;;5.20;1.40;;;2.80;99.90;;;;;;5052920;28;20441;-72
2021/04/16 04:31:46;;;;;;;2.45;1.20;;;2.80;99.90;;;;;;5055604;28;20032;-72
2021/04/16 04:34:13;;;;;;;8.93;2.13;;;2.90;99.90;;;;;;5053519;28;20109;-73
2021/04/16 04:36:39;;;;;;;3.53;1.02;;;2.90;99.90;;;;;;5058265;28;20028;-73
2021/04/16 04:39:04;;;;;;;2.92;1.27;;;3.00;99.90;;;;;;5052062;28;20041;-72
2021/04/16 04:41:30;;;;;;;6.18;1.52;;;3.00;99.90;;;;;;5057459;28;20029;-72
2021/04/16 04:43:56;;;;;;;4.22;1.13;;;3.10;99.90;;;;;;5056761;28;20052;-73
2021/04/16 04:46:21;;;;;;;4.95;1.10;;;3.10;99.90;;;;;;5053698;28;20055;-72
2021/04/16 04:48:47;;;;;;;7.28;1.30;;;3.10;99.90;;;;;;5053921;28;20482;-71
2021/04/16 04:51:12;;;;;;;4.72;1.20;;;3.10;99.90;;;;;;5054772;28;20047;-72
2021/04/16 04:53:38;;;;;;;3.03;1.23;;;3.10;99.90;;;;;;5054003;28;20017;-72
2021/04/16 04:56:04;;;;;;;2.55;1.00;;;3.10;99.90;;;;;;5055432;28;20032;-72
2021/04/16 04:58:29;;;;;;;5.40;1.75;;;3.00;99.90;;;;;;5053312;28;20032;-72
2021/04/16 05:00:55;;;;;;;3.55;1.17;;;2.90;99.90;;;;;;5055600;28;20044;-72
2021/04/16 05:03:20;;;;;;;1.58;0.90;;;2.90;99.90;;;;;;5054219;28;20117;-72
2021/04/16 05:05:46;;;;;;;4.05;1.40;;;2.80;99.90;;;;;;5053155;28;20076;-72
2021/04/16 05:08:12;;;;;;;7.40;1.30;;;2.80;99.90;;;;;;5052838;28;20566;-72
2021/04/16 05:10:37;;;;;;;2.25;1.20;;;2.80;99.90;;;;;;5052637;28;20117;-72
2021/04/16 05:13:03;;;;;;;2.03;0.93;;;2.80;99.90;;;;;;5056280;28;20079;-72
2021/04/16 05:15:28;;;;;;;4.55;1.40;;;2.70;99.90;;;;;;5054889;28;20044;-72
2021/04/16 05:17:54;;;;;;;6.28;2.03;;;2.70;99.90;;;;;;5055060;28;20118;-73
2021/04/16 05:20:21;;;;;;;11.82;2.58;;;2.80;99.90;;;;;;5051626;28;20075;-72
2021/04/16 05:22:47;;;;;;;7.20;1.67;;;2.90;99.90;;;;;;5053301;28;20040;-72
2021/04/16 05:25:13;;;;;;;5.50;1.63;;;3.00;99.90;;;;;;5054667;28;20391;-72
2021/04/16 05:27:39;;;;;;;3.53;1.23;;;3.20;99.90;;;;;;5053430;28;20102;-72
2021/04/16 05:30:05;;;;;;;6.65;1.83;;;3.40;99.90;;;;;;5052623;28;20127;-72
2021/04/16 05:32:31;;;;;;;7.20;2.22;;;3.60;99.90;;;;;;5054123;28;20037;-72
2021/04/16 05:34:56;;;;;;;7.35;1.38;;;3.60;99.90;;;;;;5051586;28;20553;-72
2021/04/16 05:37:22;;;;;;;3.85;1.85;;;3.70;99.90;;;;;;5055394;28;20479;-73
2021/04/16 05:39:50;;;;;;;5.35;2.03;;;3.80;99.90;;;;;;5054307;28;20383;-71
2021/04/16 05:42:17;;;;;;;7.47;1.98;;;3.80;99.90;;;;;;5058830;28;20040;-70
2021/04/16 05:44:42;;;;;;;10.02;1.73;;;3.90;99.90;;;;;;5056945;28;20109;-72
2021/04/16 05:47:08;;;;;;;7.20;2.20;;;4.10;99.90;;;;;;5056783;28;20037;-72
2021/04/16 05:49:33;;;;;;;6.30;1.92;;;4.40;99.90;;;;;;5058592;28;20554;-72
2021/04/16 05:51:59;;;;;;;5.57;1.73;;;5.30;99.90;;;;;;5056829;28;20498;-72
2021/04/16 05:54:25;;;;;;;9.50;3.33;;;6.30;99.90;;;;;;5052783;28;20037;-73
2021/04/16 05:56:51;;;;;;;7.30;2.35;;;7.40;99.90;;;;;;5059362;28;20379;-72
2021/04/16 05:59:16;;;;;;;6.90;2.35;;;8.50;99.90;;;;;;5057162;28;20068;-73
2021/04/16 06:01:42;;;;;;;11.63;2.33;;;9.40;99.90;;;;;;5057280;28;20033;-72
2021/04/16 06:04:14;;;;;;;6.32;2.20;;;10.20;99.90;;;;;;5059400;28;20036;-72
2021/04/16 06:06:40;;;;;;;7.30;2.35;;;11.10;99.90;;;;;;5059006;28;20020;-73
2021/04/16 06:09:06;;;;;;;12.32;3.15;;;11.60;99.90;;;;;;5058149;28;20348;-72
2021/04/16 06:11:31;;;;;;;11.48;3.20;;;12.00;98.50;;;;;;5052668;28;20475;-73
2021/04/16 06:13:57;;;;;;;11.63;3.38;;;12.50;95.60;;;;;;5048046;28;20037;-72
2021/04/16 06:16:22;;;;;;;9.88;3.47;;;12.60;95.40;;;;;;5051046;28;20025;-73
2021/04/16 06:18:50;;;;;;;8.75;3.40;;;13.10;92.10;;;;;;5050404;28;20131;-72
2021/04/16 06:21:15;;;;;;;9.05;3.40;;;13.30;91.40;;;;;;5049777;28;20029;-73
2021/04/16 06:23:41;;;;;;;8.40;3.30;;;13.80;84.60;;;;;;5047998;28;20041;-73
2021/04/16 06:26:07;;;;;;;10.73;3.55;;;13.80;82.70;;;;;;5047168;28;20179;-72
2021/04/16 06:28:32;;;;;;;7.03;3.28;;;13.60;80.60;;;;;;5048961;28;20391;-73
2021/04/16 06:30:58;;;;;;;11.48;3.30;;;13.90;79.60;;;;;;5050090;28;20043;-73
2021/04/16 06:33:28;;;;;;;12.85;3.25;;;13.90;79.60;;;;;;5051378;28;20483;-72
2021/04/16 06:36:04;;;;;;;7.43;2.97;;;14.20;79.10;;;;;;5046914;28;20040;-72
2021/04/16 06:38:32;;;;;;;7.88;2.70;;;14.50;76.90;;;;;;5049513;28;20844;-74
2021/04/16 06:41:00;;;;;;;13.48;3.40;;;14.70;73.90;;;;;;5049214;28;20397;-72
2021/04/16 06:43:33;;;;;;;7.68;3.47;;;15.20;72.50;;;;;;5050719;28;20021;-73
2021/04/16 06:45:59;;;;;;;9.30;3.90;;;15.20;70.80;;;;;;5048173;28;20403;-74
2021/04/16 06:48:26;;;;;;;7.95;3.22;;;15.20;69.00;;;;;;5054924;28;20127;-72
2021/04/16 06:50:57;;;;;;;8.85;3.55;;;15.00;68.40;;;;;;5050430;28;20025;-72
2021/04/16 06:53:51;;;;;;;10.10;3.90;;;15.50;68.20;;;;;;5047241;28;20399;-72
2021/04/16 06:56:22;;;;;;;11.38;3.88;;;15.50;65.60;;;;;;5035864;28;20064;-72
2021/04/16 06:58:58;;;;;;;8.23;3.15;;;15.80;65.00;;;;;;5055281;28;20060;-72
2021/04/16 07:01:27;;;;;;;11.68;3.42;;;15.70;64.00;;;;;;5048931;28;20041;-73
2021/04/16 07:04:15;;;;;;;8.48;2.88;;;15.70;63.70;;;;;;5051331;28;20028;-72
2021/04/16 07:06:41;;;;;;;11.30;3.72;;;15.70;64.40;;;;;;5053944;28;20036;-74
2021/04/16 07:09:13;;;;;;;5.68;2.38;;;15.70;63.80;;;;;;5054318;28;20087;-75
2021/04/16 07:11:43;;;;;;;6.13;2.83;;;15.80;63.90;;;;;;5057942;28;20105;-74
2021/04/16 07:14:16;;;;;;;6.78;2.60;;;15.60;62.90;;;;;;5057512;28;20401;-74
2021/04/16 07:16:42;;;;;;;9.80;3.08;;;15.40;64.00;;;;;;5053186;28;20376;-73
2021/04/16 07:19:21;;;;;;;8.45;3.22;;;14.20;65.40;;;;;;5057156;28;20035;-73
2021/04/16 07:21:47;;;;;;;5.50;2.20;;;13.20;70.10;;;;;;5055776;28;20436;-73
2021/04/16 07:24:15;;;;;;;9.15;2.70;;;12.30;77.40;;;;;;5057070;28;20041;-72
2021/04/16 07:26:51;;;;;;;7.50;2.67;;;12.10;82.70;;;;;;5054171;28;20040;-73
2021/04/16 07:29:53;;;;;;;7.88;3.08;;;12.00;85.40;;;;;;5055285;28;20063;-72
2021/04/16 07:32:31;;;;;;;9.30;3.35;;;11.90;88.10;;;;;;5057799;28;20037;-72
2021/04/16 07:35:39;;;;;;;9.15;3.42;;;11.50;90.20;;;;;;5044730;28;20123;-72
2021/04/16 07:38:14;;;;;;;13.63;2.88;;;11.30;92.30;;;;;;5041253;28;20121;-72
2021/04/16 07:40:45;;;;;;;13.32;3.00;;;11.20;93.10;;;;;;5051599;28;20033;-71
2021/04/16 07:43:45;;;;;;;10.55;2.83;;;11.00;94.10;;;;;;5053032;28;20067;-72
2021/04/16 07:46:39;;;;;;;8.27;2.78;;;10.70;94.90;;;;;;5054351;28;20383;-71
2021/04/16 07:49:12;;;;;;;13.10;2.75;;;10.50;97.90;;;;;;5051218;28;20032;-71
2021/04/16 07:51:38;;;;;;;7.40;2.47;;;10.70;98.80;;;;;;5043345;28;20622;-72
2021/04/16 07:54:30;;;;;;;6.93;2.53;;;10.70;98.30;;;;;;5050117;28;20029;-72
2021/04/16 07:57:12;;;;;;;6.22;2.38;;;10.80;98.40;;;;;;5051389;28;20065;-71
2021/04/16 08:00:08;;;;;;;7.97;2.38;;;10.90;97.80;;;;;;5047235;28;20086;-71
2021/04/16 08:02:44;;;;;;;7.75;2.10;;;10.80;95.70;;;;;;5008808;28;20033;-71
2021/04/16 08:05:53;;;;;;;4.35;1.67;;;10.80;95.80;;;;;;5046617;28;20406;-73
2021/04/16 08:08:22;;;;;;;7.38;1.52;;;10.70;93.70;;;;;;5018729;28;20029;-71
2021/04/16 08:10:52;;;;;;;4.70;1.90;;;10.60;95.20;;;;;;5043707;28;20040;-73
2021/04/16 08:13:20;;;;;;;5.28;1.67;;;10.70;95.60;;;;;;5049896;28;20055;-71
2021/04/16 08:15:47;;;;;;;6.10;1.90;;;10.60;95.00;;;;;;5047087;28;20458;-71
2021/04/16 08:18:25;;;;;;;8.73;2.03;;;10.60;96.20;;;;;;5044214;28;20067;-72
2021/04/16 08:21:00;;;;;;;4.38;1.60;;;10.60;94.70;;;;;;5046373;28;20399;-71
2021/04/16 08:23:31;;;;;;;3.22;1.25;;;10.60;94.60;;;;;;5043270;28;20124;-70
2021/04/16 08:25:58;;;;;;;3.05;1.35;;;10.60;94.50;;;;;;5046451;28;20423;-72
2021/04/16 08:28:43;;;;;;;8.77;1.90;;;10.70;94.10;;;;;;5045901;28;20028;-71
2021/04/16 08:31:13;;;;;;;3.30;1.27;;;10.90;93.00;;;;;;5046125;28;20032;-71
2021/04/16 08:33:44;;;;;;;7.28;1.60;;;11.00;92.30;;;;;;5044192;28;20510;-71
2021/04/16 08:36:29;;;;;;;3.13;1.40;;;10.90;90.80;;;;;;5047246;28;20697;-72
2021/04/16 08:39:12;;;;;;;5.25;1.55;;;11.00;92.40;;;;;;5048572;28;20045;-72
2021/04/16 08:41:48;;;;;;;3.88;1.50;;;10.90;92.40;;;;;;5050488;28;20472;-73
2021/04/16 08:44:14;;;;;;;5.07;1.30;;;11.10;92.40;;;;;;5055406;28;20055;-73
2021/04/16 08:46:45;;;;;;;4.50;1.13;;;11.10;92.20;;;;;;5052866;28;20044;-73
2021/04/16 08:49:17;;;;;;;5.88;1.00;;;11.30;93.00;;;;;;5056102;28;20138;-72
2021/04/16 08:51:46;;;;;;;4.10;1.30;;;11.30;90.80;;;;;;5052999;28;20033;-72
2021/04/16 08:54:23;;;;;;;8.73;1.42;;;11.40;89.40;;;;;;5056744;28;20119;-72
2021/04/16 08:56:57;;;;;;;3.13;1.40;;;11.40;90.40;;;;;;5049552;28;20435;-72
2021/04/16 08:59:24;;;;;;;2.47;1.15;;;11.50;88.20;;;;;;5054802;28;20032;-73
2021/04/16 09:01:56;;;;;;;3.80;1.42;;;11.50;84.00;;;;;;5051210;28;20546;-73
2021/04/16 09:04:30;;;;;;;4.07;1.25;;;11.60;80.50;;;;;;5056606;28;20024;-73
2021/04/16 09:06:59;;;;;;;8.30;1.67;;;11.80;80.80;;;;;;5053609;28;20033;-72
2021/04/16 09:09:51;;;;;;;6.82;1.40;;;11.80;77.80;;;;;;5053463;28;20025;-72
2021/04/16 09:12:39;;;;;;;3.88;1.23;;;11.90;79.10;;;;;;5048373;28;20033;-73
2021/04/16 09:15:18;;;;;;;3.28;1.75;;;11.80;80.40;;;;;;5051650;28;20029;-72
2021/04/16 09:17:53;;;;;;;5.45;1.23;;;12.00;80.30;;;;;;5049255;28;20399;-72
2021/04/16 09:20:23;;;;;;;2.80;1.20;;;12.20;79.50;;;;;;5045850;28;20037;-72
2021/04/16 09:22:50;;;;;;;;;;;12.40;76.40;;;;;;5054934;28;20032;-71
2021/04/16 09:25:38;;;;;;;7.82;1.50;;;12.40;75.20;;;;;;5051171;28;19921;-72
2021/04/16 09:28:22;;;;;;;6.00;1.60;;;12.30;75.00;;;;;;5050898;28;20033;-73
2021/04/16 09:31:03;;;;;;;5.25;1.15;;;12.30;74.90;;;;;;5051795;28;20028;-72
2021/04/16 09:33:38;;;;;;;4.50;1.23;;;12.10;71.80;;;;;;5054210;28;20263;-72
2021/04/16 09:36:31;;;;;;;3.58;1.30;;;11.90;76.00;;;;;;5048636;28;20049;-72
2021/04/16 09:39:12;;;;;;;5.75;1.17;;;12.00;74.70;;;;;;5040972;28;20087;-72
2021/04/16 09:41:41;;;;;;;3.67;1.45;;;12.00;72.20;;;;;;5048953;28;20040;-71
2021/04/16 09:44:28;;;;;;;3.08;1.08;;;12.00;71.50;;;;;;5052037;28;20134;-72
2021/04/16 09:46:59;;;;;;;2.80;1.08;;;12.00;70.30;;;;;;5049302;28;20053;-71
2021/04/16 09:49:24;;;;;;;4.43;1.38;;;11.90;71.30;;;;;;5053515;28;20542;-72
2021/04/16 09:51:52;;;;;;;2.80;1.00;;;12.00;69.70;;;;;;5049946;28;20044;-72
2021/04/16 09:54:21;;;;;;;2.80;1.20;;;11.90;68.90;;;;;;5055158;28;20052;-72
2021/04/16 09:57:02;;;;;;;4.35;0.88;;;12.10;69.70;;;;;;5051323;28;20431;-73
2021/04/16 09:59:31;;;;;;;3.95;1.00;;;12.20;67.70;;;;;;5052881;28;20037;-72
2021/04/16 10:02:18;;;;;;;4.85;1.15;;;12.30;63.80;;;;;;5051527;28;20388;-72
2021/04/16 10:05:08;;;;;;;3.15;1.10;;;12.40;63.30;;;;;;5047963;28;20476;-72
2021/04/16 10:07:51;;;;;;;5.35;1.55;;;12.20;60.90;;;;;;5052006;28;20036;-71
2021/04/16 10:10:22;;;;;;;2.63;0.85;;;12.30;62.40;;;;;;5049200;28;20071;-72
2021/04/16 10:12:48;;;;;;;5.07;1.20;;;12.20;63.60;;;;;;5055572;28;20517;-72
2021/04/16 10:15:25;;;;;;;2.17;0.85;;;12.00;64.40;;;;;;5051017;28;20033;-72
2021/04/16 10:18:00;;;;;;;2.92;1.23;;;12.00;63.90;;;;;;5049507;28;20033;-73
2021/04/16 10:20:29;;;;;;;3.35;0.90;;;12.10;64.10;;;;;;5049995;28;20068;-73
2021/04/16 10:23:01;;;;;;;2.35;0.80;;;12.10;62.50;;;;;;5051176;28;20053;-73
2021/04/16 12:39:17;;;;;;;3.35;1.02;;;12.30;64.70;;;;;;5045750;28;20090;-72
2021/04/16 12:41:49;;;;;;;4.00;1.00;;;12.40;63.70;;;;;;5046039;28;20450;-72
2021/04/16 12:44:27;;;;;;;2.15;0.98;;;12.40;64.70;;;;;;5046297;28;20048;-72
2021/04/16 12:46:56;;;;;;;7.18;1.40;;;12.50;62.80;;;;;;5048414;28;20124;-72
2021/04/16 12:49:26;;;;;;;2.70;1.03;;;12.50;62.90;;;;;;5045157;28;20084;-73
2021/04/16 12:51:52;;;;;;;2.95;1.38;;;12.20;62.90;;;;;;5044737;28;20694;-72
2021/04/16 12:54:17;;;;;;;4.90;1.48;;;12.00;62.60;;;;;;5046440;28;20552;-73
2021/04/16 12:56:43;;;;;;;4.88;0.90;;;11.90;64.30;;;;;;5048569;28;20024;-73
2021/04/16 12:59:14;;;;;;;2.58;0.80;;;11.90;64.20;;;;;;5045227;28;20045;-72
2021/04/16 13:01:43;;;;;;;7.15;0.88;;;12.10;64.00;;;;;;5047667;28;20938;-72
2021/04/16 13:04:09;;;;;;;5.22;1.42;;;12.30;63.50;;;;;;5045286;28;20045;-72
2021/04/16 13:06:38;;;;;;;6.60;1.02;;;12.40;63.60;;;;;;5050669;28;20445;-73
2021/04/16 13:09:06;;;;;;;2.95;0.98;;;12.50;60.40;;;;;;5043197;28;20037;-73
2021/04/16 13:11:32;;;;;;;6.75;0.82;;;12.40;60.20;;;;;;5043304;28;20041;-73
2021/04/16 13:13:58;;;;;;;3.90;1.00;;;12.40;59.60;;;;;;5048828;28;20079;-73
2021/04/16 13:16:24;;;;;;;2.45;0.68;;;12.20;59.50;;;;;;5045563;28;20037;-73
2021/04/16 13:18:55;;;;;;;1.95;0.80;;;12.10;59.90;;;;;;5051381;28;20040;-72
2021/04/16 13:21:30;;;;;;;1.73;1.10;;;12.10;60.30;;;;;;5052668;28;20090;-73
2021/04/16 13:23:56;;;;;;;3.80;0.85;;;12.20;59.60;;;;;;5053049;28;20040;-73
2021/04/16 13:26:23;;;;;;;2.83;0.80;;;12.10;59.10;;;;;;5053440;28;20418;-73
2021/04/16 13:28:48;;;;;;;3.13;0.70;;;12.00;60.60;;;;;;5045694;28;20068;-73
2021/04/16 13:31:14;;;;;;;2.38;1.00;;;12.00;59.90;;;;;;5043217;28;20865;-73
2021/04/16 13:33:43;;;;;;;1.38;0.55;;;12.20;59.60;;;;;;5043951;28;20453;-75
2021/04/16 13:36:19;;;;;;;2.67;0.98;;;12.20;59.60;;;;;;5050672;28;20033;-73
2021/04/16 13:38:46;;;;;;;5.10;1.15;;;12.20;59.50;;;;;;5048007;28;20273;-72
2021/04/16 13:41:13;;;;;;;2.83;0.77;;;12.20;58.10;;;;;;5044204;28;20140;-72
2021/04/16 13:43:39;;;;;;;1.92;0.82;;;12.10;57.60;;;;;;5045426;28;20032;-72
2021/04/16 13:46:10;;;;;;;2.75;0.80;;;12.00;58.10;;;;;;5048345;28;20497;-73
2021/04/16 13:48:35;;;;;;;1.27;0.55;;;12.10;59.30;;;;;;5041096;28;20048;-73
2021/04/16 13:51:04;;;;;;;1.70;0.50;;;12.20;58.70;;;;;;5047991;28;20029;-73
2021/04/16 13:53:30;;;;;;;1.75;0.60;;;12.20;60.30;;;;;;5044760;28;20033;-73
2021/04/16 13:55:55;;;;;;;1.25;0.43;;;12.20;59.40;;;;;;5044987;28;20037;-73
2021/04/16 13:58:21;;;;;;;4.53;0.70;;;12.20;59.40;;;;;;5045525;28;20040;-74
2021/04/16 14:00:46;;;;;;;1.60;0.65;;;12.30;60.30;;;;;;5046426;28;20029;-74
2021/04/16 14:03:36;;;;;;;4.45;0.77;;;12.30;59.40;;;;;;5051644;28;20119;-73
2021/04/16 14:06:07;;;;;;;1.98;0.70;;;12.20;59.40;;;;;;5049518;28;20506;-73
2021/04/16 14:08:39;;;;;;;4.75;0.75;;;12.20;61.00;;;;;;5049019;28;20033;-73
2021/04/16 14:11:06;;;;;;;1.73;0.50;;;12.20;60.30;;;;;;5052022;28;20095;-72
2021/04/16 14:13:33;;;;;;;2.72;1.00;;;12.10;61.40;;;;;;5048199;28;20024;-72
2021/04/16 14:16:07;;;;;;;1.38;0.73;;;12.00;61.00;;;;;;5050326;28;20037;-73
2021/04/16 14:18:53;;;;;;;2.35;0.75;;;12.10;63.10;;;;;;5045803;28;20029;-74
2021/04/16 14:21:20;;;;;;;6.10;0.65;;;12.00;61.10;;;;;;5048851;28;20041;-73
2021/04/16 14:23:46;;;;;;;3.08;0.70;;;11.90;60.90;;;;;;5054692;28;20041;-73
2021/04/16 14:26:13;;;;;;;1.02;0.43;;;11.90;61.30;;;;;;5046850;28;20242;-73
2021/04/16 14:28:39;;;;;;;1.20;0.45;;;11.90;60.80;;;;;;5051923;28;20036;-77
2021/04/16 14:31:06;;;;;;;1.40;0.45;;;11.90;61.90;;;;;;5048352;28;20482;-74
2021/04/16 14:33:34;;;;;;;5.45;1.17;;;11.80;61.60;;;;;;5049112;28;20449;-73
2021/04/16 14:36:00;;;;;;;2.05;0.50;;;11.80;62.00;;;;;;5045600;28;20120;-74
2021/04/16 14:38:28;;;;;;;2.75;0.70;;;11.90;63.20;;;;;;5050462;28;20040;-74
2021/04/16 14:40:54;;;;;;;6.68;0.60;;;11.90;63.00;;;;;;5048907;28;20382;-73
2021/04/16 14:43:21;;;;;;;2.17;0.65;;;11.80;62.30;;;;;;5047562;28;20051;-74
2021/04/16 14:45:49;;;;;;;2.45;0.63;;;11.70;62.80;;;;;;5049516;28;20091;-74
2021/04/16 14:48:15;;;;;;;2.03;0.98;;;11.70;63.50;;;;;;5050288;28;20195;-72
2021/04/16 14:50:41;;;;;;;3.95;0.70;;;11.70;64.20;;;;;;5045938;28;20041;-73
2021/04/16 14:53:14;;;;;;;2.03;0.80;;;11.70;64.50;;;;;;5048779;28;20094;-73
2021/04/16 14:55:40;;;;;;;1.67;0.60;;;11.80;64.50;;;;;;5050863;28;20170;-73
2021/04/16 14:58:08;;;;;;;3.35;0.70;;;11.80;63.50;;;;;;5048218;28;20029;-73
2021/04/16 15:00:35;;;;;;;2.15;0.40;;;11.80;63.30;;;;;;5049251;28;20129;-75
2021/04/16 15:03:01;;;;;;;2.03;0.60;;;11.80;64.20;;;;;;5049370;28;20029;-72
2021/04/16 15:05:27;;;;;;;1.85;0.63;;;11.60;64.10;;;;;;5046080;28;20069;-72
2021/04/16 15:08:09;;;;;;;2.72;0.60;;;11.60;65.90;;;;;;5044021;28;20509;-73
2021/04/16 15:10:40;;;;;;;1.75;0.65;;;11.60;65.30;;;;;;5048721;28;20036;-72
2021/04/16 15:13:07;;;;;;;3.17;0.63;;;11.50;66.50;;;;;;5048628;28;20086;-73
2021/04/16 15:15:41;;;;;;;2.67;0.75;;;11.60;67.80;;;;;;5032840;28;20434;-73
2021/04/16 15:18:12;;;;;;;4.22;0.85;;;11.60;68.30;;;;;;5046399;28;20384;-73